createdAt,value
2018-06-07T00:00:50.174Z,17.06
2018-06-07T00:03:19.078Z,16.95
2018-06-07T00:05:47.098Z,16.91
2018-06-07T00:08:15.751Z,16.94
2018-06-07T00:10:44.772Z,16.94
2018-06-07T00:13:13.639Z,16.87
2018-06-07T00:15:45.653Z,16.85
2018-06-07T00:18:13.474Z,16.83
2018-06-07T00:20:41.265Z,16.87
2018-06-07T00:23:09.765Z,16.79
2018-06-07T00:25:39.163Z,16.71
2018-06-07T00:28:08.675Z,16.73
2018-06-07T00:30:37.660Z,16.62
2018-06-07T00:33:07.694Z,16.68
2018-06-07T00:35:41.742Z,16.68
2018-06-07T00:38:11.334Z,16.75
2018-06-07T00:40:39.198Z,16.80
2018-06-07T00:43:07.093Z,16.74
2018-06-07T00:45:35.799Z,16.47
2018-06-07T00:48:04.981Z,16.43
2018-06-07T00:50:33.126Z,16.55
2018-06-07T00:53:01.820Z,16.66
2018-06-07T00:55:30.725Z,16.79
2018-06-07T00:57:59.430Z,16.84
2018-06-07T01:00:28.240Z,16.87
2018-06-07T01:02:57.143Z,16.81
2018-06-07T01:05:24.992Z,16.75
2018-06-07T01:07:52.866Z,16.84
2018-06-07T01:10:21.766Z,16.91
2018-06-07T01:12:50.430Z,16.93
2018-06-07T01:15:19.766Z,17.03
2018-06-07T01:17:48.675Z,17.08
2018-06-07T01:20:17.369Z,17.15
2018-06-07T01:22:47.412Z,17.24
2018-06-07T01:25:15.479Z,16.97
2018-06-07T01:27:44.208Z,16.81
2018-06-07T01:30:29.300Z,16.73
2018-06-07T01:33:08.429Z,16.61
2018-06-07T01:35:37.505Z,16.71
2018-06-07T01:38:10.862Z,16.77
2018-06-07T01:40:40.201Z,16.83
2018-06-07T01:43:09.204Z,16.88
2018-06-07T01:45:38.006Z,16.88
2018-06-07T01:48:06.867Z,16.96
2018-06-07T01:50:36.294Z,17.01
2018-06-07T01:53:05.055Z,17.03
2018-06-07T01:55:34.374Z,17.06
2018-06-07T01:58:03.701Z,17.17
2018-06-07T02:00:32.347Z,17.24
2018-06-07T02:03:01.210Z,17.16
2018-06-07T02:05:30.147Z,17.11
2018-06-07T02:07:58.865Z,17.03
2018-06-07T02:10:27.727Z,16.96
2018-06-07T02:12:57.094Z,16.89
2018-06-07T02:15:25.985Z,16.99
2018-06-07T02:17:54.551Z,17.06
2018-06-07T02:20:23.836Z,17.01
2018-06-07T02:22:52.412Z,16.97
2018-06-07T02:25:22.191Z,16.95
2018-06-07T02:27:50.919Z,17.04
2018-06-07T02:30:18.680Z,17.03
2018-06-07T02:32:47.976Z,17.05
2018-06-07T02:35:17.344Z,17.03
2018-06-07T02:37:46.391Z,16.99
2018-06-07T02:40:15.304Z,17.03
2018-06-07T02:42:44.174Z,17.04
2018-06-07T02:45:13.202Z,17.08
2018-06-07T02:47:42.497Z,17.04
2018-06-07T02:50:11.649Z,17.04
2018-06-07T02:52:40.217Z,17.07
2018-06-07T02:55:08.961Z,17.06
2018-06-07T02:57:37.814Z,17.08
2018-06-07T03:00:06.566Z,16.95
2018-06-07T03:02:35.660Z,16.85
2018-06-07T03:05:04.515Z,16.85
2018-06-07T03:07:33.141Z,16.81
2018-06-07T03:10:01.982Z,16.79
2018-06-07T03:12:31.546Z,16.84
2018-06-07T03:15:00.219Z,16.88
2018-06-07T03:17:29.030Z,16.82
2018-06-07T03:19:57.655Z,16.85
2018-06-07T03:22:27.551Z,16.88
2018-06-07T03:24:56.130Z,16.77
2018-06-07T03:27:24.910Z,16.84
2018-06-07T03:29:54.175Z,16.88
2018-06-07T03:32:23.076Z,16.92
2018-06-07T03:34:52.512Z,16.95
2018-06-07T03:37:21.971Z,16.94
2018-06-07T03:39:50.801Z,16.84
2018-06-07T03:42:18.632Z,16.76
2018-06-07T03:44:46.463Z,16.84
2018-06-07T03:47:15.229Z,16.85
2018-06-07T03:49:43.960Z,16.88
2018-06-07T03:52:13.360Z,16.87
2018-06-07T03:54:42.252Z,16.72
2018-06-07T03:57:10.980Z,16.65
2018-06-07T03:59:38.927Z,16.74
2018-06-07T04:02:07.496Z,16.78
2018-06-07T04:04:35.411Z,16.80
2018-06-07T04:07:03.589Z,16.84
2018-06-07T04:09:33.183Z,16.87
2018-06-07T04:12:02.121Z,16.91
2018-06-07T04:14:30.996Z,16.89
2018-06-07T04:16:59.613Z,16.89
2018-06-07T04:19:28.590Z,16.93
2018-06-07T04:21:57.169Z,17.14
2018-06-07T04:24:25.915Z,17.36
2018-06-07T04:26:53.661Z,17.51
2018-06-07T04:29:21.362Z,17.64
2018-06-07T04:31:49.990Z,17.75
2018-06-07T04:34:18.717Z,17.70
2018-06-07T04:36:47.920Z,17.77
2018-06-07T04:39:16.740Z,17.89
2018-06-07T04:41:45.685Z,17.93
2018-06-07T04:44:13.716Z,18.15
2018-06-07T04:46:42.540Z,18.07
2018-06-07T04:49:10.655Z,18.08
2018-06-07T04:51:39.602Z,18.09
2018-06-07T04:54:07.541Z,18.35
2018-06-07T04:56:35.366Z,18.48
2018-06-07T04:59:04.661Z,18.67
2018-06-07T05:01:34.106Z,18.85
2018-06-07T05:04:03.307Z,19.17
2018-06-07T05:06:32.031Z,19.32
2018-06-07T05:08:59.883Z,19.56
2018-06-07T05:11:28.731Z,19.83
2018-06-07T05:13:57.426Z,20.21
2018-06-07T05:16:26.881Z,20.55
2018-06-07T05:18:54.817Z,20.93
2018-06-07T05:21:23.503Z,21.26
2018-06-07T05:23:52.168Z,21.08
2018-06-07T05:26:21.381Z,20.81
2018-06-07T05:28:50.085Z,20.73
2018-06-07T05:31:18.677Z,20.76
2018-06-07T05:33:47.683Z,20.99
2018-06-07T05:36:16.432Z,21.59
2018-06-07T05:38:45.438Z,22.39
2018-06-07T05:41:14.181Z,23.10
2018-06-07T05:43:43.036Z,23.56
2018-06-07T05:46:11.782Z,23.48
2018-06-07T05:48:39.580Z,23.57
2018-06-07T05:51:08.241Z,23.97
2018-06-07T05:53:36.841Z,24.21
2018-06-07T05:56:05.791Z,25.02
2018-06-07T05:58:33.646Z,25.23
2018-06-07T06:01:02.589Z,24.65
2018-06-07T06:03:30.502Z,24.08
2018-06-07T06:05:59.167Z,24.07
2018-06-07T06:08:27.270Z,23.81
2018-06-07T06:10:55.155Z,23.26
2018-06-07T06:13:23.984Z,23.17
2018-06-07T06:15:52.717Z,23.13
2018-06-07T06:18:22.308Z,22.96
2018-06-07T06:20:51.657Z,22.64
2018-06-07T06:23:20.625Z,22.92
2018-06-07T06:25:49.318Z,22.94
2018-06-07T06:28:18.126Z,22.93
2018-06-07T06:30:47.067Z,22.48
2018-06-07T06:33:16.535Z,22.16
2018-06-07T06:35:45.754Z,22.18
2018-06-07T06:38:46.528Z,22.19
2018-06-07T06:41:15.481Z,22.34
2018-06-07T06:43:44.222Z,22.55
2018-06-07T06:46:12.950Z,22.64
2018-06-07T06:48:41.771Z,22.39
2018-06-07T06:51:10.407Z,22.28
2018-06-07T06:53:39.176Z,22.39
2018-06-07T06:56:07.847Z,21.99
2018-06-07T06:58:37.451Z,22.08
2018-06-07T07:01:06.261Z,22.11
2018-06-07T07:03:35.650Z,22.05
2018-06-07T07:06:03.691Z,22.01
2018-06-07T07:08:31.917Z,21.77
2018-06-07T07:11:00.907Z,21.78
2018-06-07T07:13:28.663Z,21.66
2018-06-07T07:15:57.760Z,21.71
2018-06-07T07:18:26.608Z,21.53
2018-06-07T07:20:55.204Z,21.63
2018-06-07T07:23:23.388Z,21.35
2018-06-07T07:25:51.953Z,21.48
2018-06-07T07:28:20.863Z,21.52
2018-06-07T07:30:50.242Z,21.74
2018-06-07T07:33:19.692Z,21.86
2018-06-07T07:35:48.658Z,21.91
2018-06-07T07:38:17.742Z,21.73
2018-06-07T07:40:45.667Z,21.65
2018-06-07T07:43:14.542Z,21.47
2018-06-07T07:45:42.449Z,21.50
2018-06-07T07:48:11.884Z,21.65
2018-06-07T07:50:40.528Z,21.83
2018-06-07T07:53:09.194Z,21.92
2018-06-07T07:55:38.445Z,21.79
2018-06-07T07:58:07.123Z,21.81
2018-06-07T08:00:35.937Z,21.74
2018-06-07T08:03:04.754Z,21.82
2018-06-07T08:05:33.478Z,22.14
2018-06-07T08:08:02.646Z,22.15
2018-06-07T08:10:31.876Z,22.28
2018-06-07T08:13:01.368Z,22.44
2018-06-07T08:15:29.942Z,22.62
2018-06-07T08:17:59.546Z,22.75
2018-06-07T08:20:28.303Z,22.80
2018-06-07T08:22:57.119Z,22.89
2018-06-07T08:25:26.192Z,22.80
2018-06-07T08:27:55.383Z,22.72
2018-06-07T08:30:24.244Z,22.86
2018-06-07T08:32:52.869Z,22.97
2018-06-07T08:35:21.750Z,23.08
2018-06-07T08:37:50.525Z,23.23
2018-06-07T08:40:19.248Z,23.38
2018-06-07T08:42:48.694Z,23.70
2018-06-07T08:45:17.989Z,23.79
2018-06-07T08:47:46.542Z,23.53
2018-06-07T08:50:16.713Z,23.55
2018-06-07T08:52:45.386Z,24.19
2018-06-07T08:55:14.884Z,24.62
2018-06-07T08:57:43.619Z,24.92
2018-06-07T09:00:12.666Z,25.14
2018-06-07T09:02:40.507Z,24.83
2018-06-07T09:05:08.412Z,25.25
2018-06-07T09:07:37.189Z,25.53
2018-06-07T09:10:06.562Z,25.45
2018-06-07T09:12:34.464Z,25.64
2018-06-07T09:15:02.772Z,24.76
2018-06-07T09:17:31.443Z,24.65
2018-06-07T09:19:59.223Z,24.79
2018-06-07T09:22:28.212Z,24.56
2018-06-07T09:24:56.368Z,24.88
2018-06-07T09:27:24.167Z,24.82
2018-06-07T09:29:52.725Z,24.42
2018-06-07T09:32:20.524Z,24.64
2018-06-07T09:34:48.363Z,24.97
2018-06-07T09:37:16.904Z,24.61
2018-06-07T09:39:44.814Z,24.96
2018-06-07T09:42:12.759Z,25.39
2018-06-07T09:44:40.735Z,25.21
2018-06-07T09:47:09.003Z,25.38
2018-06-07T09:49:37.032Z,25.77
2018-06-07T09:52:05.058Z,25.93
2018-06-07T09:54:32.803Z,26.42
2018-06-07T09:57:00.652Z,26.28
2018-06-07T09:59:29.233Z,26.57
2018-06-07T10:01:57.583Z,26.45
2018-06-07T10:04:25.653Z,26.23
2018-06-07T10:06:53.609Z,25.66
2018-06-07T10:09:21.394Z,26.34
2018-06-07T10:11:49.407Z,26.40
2018-06-07T10:14:17.910Z,26.84
2018-06-07T10:16:46.569Z,27.78
2018-06-07T10:19:15.351Z,28.28
2018-06-07T10:21:43.431Z,28.13
2018-06-07T10:24:12.764Z,28.41
2018-06-07T10:26:41.710Z,28.63
2018-06-07T10:29:10.496Z,28.21
2018-06-07T10:31:39.364Z,27.62
2018-06-07T10:34:07.915Z,27.88
2018-06-07T10:36:36.573Z,27.64
2018-06-07T10:39:07.784Z,27.27
2018-06-07T10:41:37.163Z,27.45
2018-06-07T10:44:06.031Z,27.90
2018-06-07T10:46:34.669Z,27.43
2018-06-07T10:49:04.008Z,28.20
2018-06-07T10:51:32.903Z,28.34
2018-06-07T10:54:01.633Z,28.53
2018-06-07T10:56:30.257Z,28.38
2018-06-07T10:58:59.006Z,28.15
2018-06-07T11:01:27.872Z,28.24
2018-06-07T11:03:56.587Z,28.01
2018-06-07T11:06:25.573Z,27.82
2018-06-07T11:08:55.168Z,27.81
2018-06-07T11:11:24.045Z,27.69
2018-06-07T11:13:53.412Z,27.72
2018-06-07T11:16:22.065Z,27.62
2018-06-07T11:18:50.881Z,27.67
2018-06-07T11:21:19.739Z,27.72
2018-06-07T11:23:48.535Z,28.06
2018-06-07T11:26:17.960Z,28.36
2018-06-07T11:28:46.595Z,28.53
2018-06-07T11:31:16.102Z,29.29
2018-06-07T11:33:45.097Z,29.75
2018-06-07T11:36:13.847Z,30.02
2018-06-07T11:38:42.578Z,30.10
2018-06-07T11:41:11.238Z,29.57
2018-06-07T11:43:40.222Z,29.52
2018-06-07T11:46:09.427Z,29.45
2018-06-07T11:48:38.119Z,29.56
2018-06-07T11:51:06.923Z,29.17
2018-06-07T11:53:36.119Z,29.68
2018-06-07T11:56:03.963Z,29.86
2018-06-07T11:58:31.723Z,29.83
2018-06-07T12:00:59.607Z,29.39
2018-06-07T12:03:28.288Z,29.57
2018-06-07T12:05:57.065Z,29.57
2018-06-07T12:08:25.631Z,29.55
2018-06-07T12:10:54.359Z,29.51
2018-06-07T12:13:22.882Z,29.31
2018-06-07T12:15:52.062Z,29.30
2018-06-07T12:18:20.809Z,29.40
2018-06-07T12:20:49.462Z,29.34
2018-06-07T12:23:19.005Z,29.10
2018-06-07T12:25:47.619Z,29.24
2018-06-07T12:28:16.335Z,29.37
2018-06-07T12:30:45.357Z,29.30
2018-06-07T12:33:14.948Z,29.57
2018-06-07T12:35:43.892Z,29.39
2018-06-07T12:38:13.194Z,29.39
2018-06-07T12:40:41.948Z,28.93
2018-06-07T12:43:10.624Z,28.92
2018-06-07T12:45:39.422Z,28.63
2018-06-07T12:48:08.079Z,28.84
2018-06-07T12:50:36.661Z,28.55
2018-06-07T12:53:05.528Z,28.58
2018-06-07T12:55:34.850Z,28.29
2018-06-07T12:58:04.558Z,28.30
2018-06-07T13:00:33.271Z,28.55
2018-06-07T13:03:02.595Z,28.71
2018-06-07T13:05:31.345Z,29.21
2018-06-07T13:08:00.095Z,29.27
2018-06-07T13:10:28.823Z,29.32
2018-06-07T13:12:57.507Z,29.19
2018-06-07T13:15:26.275Z,29.15
2018-06-07T13:17:54.960Z,29.03
2018-06-07T13:20:23.764Z,29.25
2018-06-07T13:22:52.435Z,28.98
2018-06-07T13:25:21.005Z,29.17
2018-06-07T13:27:49.807Z,29.16
2018-06-07T13:30:20.180Z,28.85
2018-06-07T13:32:48.828Z,28.78
2018-06-07T13:35:17.987Z,28.76
2018-06-07T13:37:46.758Z,28.75
2018-06-07T13:40:16.042Z,28.66
2018-06-07T13:42:44.624Z,28.51
2018-06-07T13:45:13.408Z,28.46
2018-06-07T13:47:42.238Z,28.47
2018-06-07T13:50:10.859Z,28.55
2018-06-07T13:52:39.858Z,28.36
2018-06-07T13:55:08.409Z,28.16
2018-06-07T13:57:37.245Z,28.29
2018-06-07T14:00:06.176Z,28.17
2018-06-07T14:02:34.975Z,27.73
2018-06-07T14:05:02.852Z,28.04
2018-06-07T14:07:31.434Z,28.03
2018-06-07T14:09:59.340Z,27.89
2018-06-07T14:12:27.940Z,28.06
2018-06-07T14:14:56.850Z,28.07
2018-06-07T14:17:25.653Z,28.16
2018-06-07T14:19:54.705Z,28.04
2018-06-07T14:22:23.591Z,27.88
2018-06-07T14:24:52.305Z,27.73
2018-06-07T14:27:21.339Z,27.65
2018-06-07T14:29:50.404Z,27.81
2018-06-07T14:32:19.084Z,27.84
2018-06-07T14:34:48.086Z,27.81
2018-06-07T14:37:16.914Z,27.82
2018-06-07T14:39:47.394Z,27.94
2018-06-07T14:42:16.489Z,28.06
2018-06-07T14:44:45.147Z,28.28
2018-06-07T14:47:15.215Z,28.18
2018-06-07T14:49:44.770Z,28.22
2018-06-07T14:52:13.601Z,28.33
2018-06-07T14:54:42.799Z,28.36
2018-06-07T14:57:11.135Z,28.33
2018-06-07T14:59:39.226Z,28.14
2018-06-07T15:02:07.396Z,27.95
2018-06-07T15:04:36.070Z,27.98
2018-06-07T15:07:04.133Z,27.92
2018-06-07T15:09:32.204Z,27.81
2018-06-07T15:12:00.081Z,27.78
2018-06-07T15:14:27.872Z,27.57
2018-06-07T15:16:57.204Z,27.53
2018-06-07T15:19:25.174Z,27.65
2018-06-07T15:21:53.424Z,27.74
2018-06-07T15:24:21.689Z,27.77
2018-06-07T15:26:50.070Z,27.89
2018-06-07T15:29:17.924Z,27.81
2018-06-07T15:31:46.094Z,27.91
2018-06-07T15:34:14.014Z,27.89
2018-06-07T15:36:43.154Z,27.90
2018-06-07T15:39:11.130Z,27.97
2018-06-07T15:41:40.689Z,28.04
2018-06-07T15:44:08.599Z,28.08
2018-06-07T15:46:36.767Z,28.08
2018-06-07T15:49:04.696Z,28.10
2018-06-07T15:51:32.719Z,28.19
2018-06-07T15:54:00.644Z,28.12
2018-06-07T15:56:28.934Z,28.10
2018-06-07T15:58:56.767Z,27.97
2018-06-07T16:01:25.656Z,28.02
2018-06-07T16:03:54.184Z,27.93
2018-06-07T16:06:22.125Z,27.89
2018-06-07T16:08:50.236Z,27.80
2018-06-07T16:11:19.055Z,27.74
2018-06-07T16:13:47.055Z,27.65
2018-06-07T16:16:16.854Z,27.79
2018-06-07T16:18:45.351Z,27.81
2018-06-07T16:21:16.011Z,27.96
2018-06-07T16:23:44.883Z,27.99
2018-06-07T16:26:14.824Z,27.90
2018-06-07T16:28:43.115Z,27.90
2018-06-07T16:31:11.039Z,27.91
2018-06-07T16:33:38.818Z,27.95
2018-06-07T16:36:07.806Z,28.29
2018-06-07T16:38:35.926Z,28.56
2018-06-07T16:41:04.709Z,28.70
2018-06-07T16:43:33.731Z,28.97
2018-06-07T16:46:02.790Z,29.02
2018-06-07T16:48:31.636Z,29.00
2018-06-07T16:51:01.209Z,28.99
2018-06-07T16:53:30.045Z,29.00
2018-06-07T16:55:59.016Z,29.04
2018-06-07T16:58:27.474Z,29.16
2018-06-07T17:00:57.120Z,28.89
2018-06-07T17:03:26.456Z,28.66
2018-06-07T17:05:55.476Z,28.24
2018-06-07T17:08:23.760Z,27.88
2018-06-07T17:10:51.870Z,27.57
2018-06-07T17:13:20.796Z,27.30
2018-06-07T17:15:49.546Z,27.00
2018-06-07T17:18:18.676Z,26.68
2018-06-07T17:20:47.772Z,26.39
2018-06-07T17:23:16.097Z,25.79
2018-06-07T17:25:44.314Z,25.51
2018-06-07T17:28:13.286Z,25.06
2018-06-07T17:30:41.140Z,24.77
2018-06-07T17:33:10.080Z,24.59
2018-06-07T17:35:38.129Z,24.40
2018-06-07T17:38:06.685Z,24.35
2018-06-07T17:40:35.134Z,24.21
2018-06-07T17:43:04.163Z,23.90
2018-06-07T17:45:32.115Z,23.54
2018-06-07T17:48:00.104Z,23.32
2018-06-07T17:50:29.006Z,23.26
2018-06-07T17:52:56.946Z,23.16
2018-06-07T17:55:25.215Z,23.19
2018-06-07T17:57:53.914Z,23.08
2018-06-07T18:00:21.751Z,22.85
2018-06-07T18:02:49.665Z,22.60
2018-06-07T18:05:17.605Z,22.37
2018-06-07T18:07:45.587Z,22.12
2018-06-07T18:10:13.696Z,21.95
2018-06-07T18:12:41.948Z,21.25
2018-06-07T18:15:10.196Z,20.66
2018-06-07T18:17:38.437Z,20.47
2018-06-07T18:20:06.436Z,20.15
2018-06-07T18:22:34.256Z,19.70
2018-06-07T18:25:02.095Z,19.44
2018-06-07T18:27:30.667Z,19.24
2018-06-07T18:29:58.565Z,19.42
2018-06-07T18:32:27.223Z,18.61
2018-06-07T18:34:55.017Z,18.58
2018-06-07T18:37:23.036Z,18.68
2018-06-07T18:39:51.060Z,18.64
2018-06-07T18:42:19.057Z,18.57
2018-06-07T18:44:46.975Z,18.47
2018-06-07T18:47:15.082Z,18.42
2018-06-07T18:49:43.060Z,18.45
2018-06-07T18:52:10.927Z,18.44
2018-06-07T18:54:39.271Z,18.37
2018-06-07T18:57:07.559Z,18.34
2018-06-07T18:59:35.530Z,18.15
2018-06-07T19:02:03.602Z,17.96
2018-06-07T19:04:31.601Z,18.12
2018-06-07T19:06:59.719Z,18.18
2018-06-07T19:09:33.016Z,17.96
2018-06-07T19:12:00.968Z,17.93
2018-06-07T19:14:34.250Z,17.91
2018-06-07T19:17:02.102Z,17.92
2018-06-07T19:19:35.716Z,18.00
2018-06-07T19:22:03.771Z,17.98
2018-06-07T19:24:33.758Z,17.94
2018-06-07T19:27:07.628Z,17.89
2018-06-07T19:29:36.034Z,17.86
2018-06-07T19:33:10.935Z,17.92
2018-06-07T19:35:38.802Z,17.83
2018-06-07T19:38:06.676Z,17.74
2018-06-07T19:40:39.961Z,17.67
2018-06-07T19:43:08.472Z,17.67
2018-06-07T19:45:36.444Z,17.68
2018-06-07T19:48:05.076Z,17.64
2018-06-07T19:50:33.250Z,17.60
2018-06-07T19:53:01.586Z,17.61
2018-06-07T19:55:29.796Z,17.62
2018-06-07T19:57:57.938Z,17.40
2018-06-07T20:00:26.245Z,17.31
2018-06-07T20:02:54.453Z,17.22
2018-06-07T20:05:22.755Z,17.18
2018-06-07T20:07:51.031Z,17.13
2018-06-07T20:10:19.322Z,17.13
2018-06-07T20:12:47.387Z,17.12
2018-06-07T20:15:15.335Z,17.23
2018-06-07T20:17:43.112Z,17.30
2018-06-07T20:20:10.940Z,17.30
2018-06-07T20:22:39.692Z,17.32
2018-06-07T20:25:07.714Z,17.18
2018-06-07T20:27:36.962Z,17.98
2018-06-07T20:30:59.666Z,17.50
2018-06-07T20:33:28.428Z,17.38
2018-06-07T20:38:24.739Z,18.02
2018-06-07T20:40:54.015Z,17.83
2018-06-07T20:43:22.732Z,17.67
2018-06-07T20:45:51.569Z,17.51
2018-06-07T20:48:20.617Z,17.37
2018-06-07T20:50:49.413Z,17.33
2018-06-07T20:53:18.157Z,17.35
2018-06-07T20:55:46.951Z,17.32
2018-06-07T20:58:16.667Z,17.28
2018-06-07T21:00:45.771Z,17.17
2018-06-07T21:03:14.761Z,17.17
2018-06-07T21:05:44.198Z,17.16
2018-06-07T21:08:13.041Z,17.12
2018-06-07T21:10:41.796Z,16.87
2018-06-07T21:13:10.452Z,16.75
2018-06-07T21:15:40.016Z,16.79
2018-06-07T21:18:09.008Z,16.88
2018-06-07T21:20:37.719Z,16.88
2018-06-07T21:23:06.771Z,16.81
2018-06-07T21:25:35.876Z,16.65
2018-06-07T21:28:04.820Z,16.61
2018-06-07T21:30:33.637Z,16.59
2018-06-07T21:33:02.702Z,16.57
2018-06-07T21:35:31.613Z,16.51
2018-06-07T21:38:00.393Z,16.41
2018-06-07T21:40:29.636Z,16.39
2018-06-07T21:42:58.583Z,16.36
2018-06-07T21:45:27.777Z,16.32
2018-06-07T21:47:56.771Z,16.26
2018-06-07T21:50:25.486Z,16.24
2018-06-07T21:52:54.477Z,16.24
2018-06-07T21:55:23.886Z,16.29
2018-06-07T21:57:52.908Z,16.33
2018-06-07T22:00:22.836Z,16.33
2018-06-07T22:02:51.667Z,16.36
2018-06-07T22:05:20.768Z,16.33
2018-06-07T22:07:49.912Z,16.22
2018-06-07T22:10:19.624Z,16.23
2018-06-07T22:12:48.513Z,16.26
2018-06-07T22:15:17.712Z,16.27
2018-06-07T22:17:46.360Z,16.16
2018-06-07T22:20:16.950Z,16.09
2018-06-07T22:22:47.252Z,16.06
2018-06-07T22:25:16.377Z,16.09
2018-06-07T22:27:45.106Z,16.10
2018-06-07T22:30:14.151Z,16.06
2018-06-07T22:32:42.962Z,15.95
2018-06-07T22:35:11.871Z,15.89
2018-06-07T22:37:40.652Z,15.92
2018-06-07T22:40:09.692Z,15.94
2018-06-07T22:42:38.683Z,15.97
2018-06-07T22:45:07.802Z,15.95
2018-06-07T22:47:36.726Z,15.88
2018-06-07T22:50:05.646Z,15.82
2018-06-07T22:52:34.737Z,15.78
2018-06-07T22:55:03.603Z,15.78
2018-06-07T22:57:32.257Z,15.75
2018-06-07T23:00:01.593Z,15.73
2018-06-07T23:02:30.377Z,15.73
2018-06-07T23:04:59.915Z,15.80
2018-06-07T23:07:28.923Z,15.78
2018-06-07T23:09:57.746Z,15.75
2018-06-07T23:12:26.670Z,15.70
2018-06-07T23:14:55.550Z,15.74
2018-06-07T23:17:25.005Z,15.74
2018-06-07T23:19:54.026Z,15.75
2018-06-07T23:22:22.751Z,15.72
2018-06-07T23:24:51.612Z,15.64
2018-06-07T23:27:20.572Z,15.54
2018-06-07T23:29:49.239Z,15.54
2018-06-07T23:32:18.152Z,15.58
2018-06-07T23:34:46.833Z,15.54
2018-06-07T23:37:15.813Z,15.56
2018-06-07T23:39:44.557Z,15.57
2018-06-07T23:42:13.583Z,15.64
2018-06-07T23:44:42.687Z,15.66
2018-06-07T23:47:12.031Z,15.66
2018-06-07T23:49:40.717Z,15.66
2018-06-07T23:52:09.411Z,15.68
2018-06-07T23:54:38.259Z,15.72
2018-06-07T23:57:06.933Z,15.71
2018-06-07T23:59:36.126Z,15.85
